Observations for BRIZE NORTON RA, United Kingdom (EGVN)

EGVN 180250Z 06002KT 6000 BR FEW004 SCT008 BKN060 04/03 Q1021 TEMPO SCT004  
EGVN 180250Z 06002KT 6000 BR FEW004 SCT008 BKN060 04/03 Q1021 GRN TEMPO SCT004 YLO2
EGVN 180150Z 08001KT 9999 FEW004 SCT008 BKN060 03/03 Q1022 TEMPO 4000 BR SCT004 
EGVN 180150Z 08001KT 9999 FEW004 SCT008 BKN060 03/03 Q1022 GRN TEMPO 4000 BR SCT004 YLO2
EGVN 180050Z 07002KT 9999 BKN005 03/02 Q1022 NOSIG  
EGVN 180050Z 07002KT 9999 BKN005 03/02 Q1022 YLO1 NOSIG
EGVN 172350Z 13002KT 9999 BKN005 02/01 Q1022 BECMG FEW005   
EGVN 172350Z 13002KT 9999 BKN005 02/01 Q1022 YLO1 BECMG FEW005 BLU
EGVN 172250Z 18002KT 9999 FEW045 03/02 Q1022 NOSIG  
EGVN 172250Z 18002KT 9999 FEW045 03/02 Q1022 BLU NOSIG
EGVN 172150Z 15002KT 9999 FEW032 03/02 Q1022 NOSIG  
EGVN 172150Z 15002KT 9999 FEW032 03/02 Q1022 BLU NOSIG
EGVN 172050Z 22002KT 9999 FEW032 SCT050 BKN120 04/02 Q1022 BLU NOSIG
EGVN 172050Z 22002KT 9999 FEW032 SCT050 BKN120 04/02 Q1022 NOSIG
EGVN 171950Z 21003KT 9999 FEW032 05/03 Q1022 NOSIG  
EGVN 171950Z 21003KT 9999 FEW032 05/03 Q1022 BLU NOSIG
EGVN 171850Z 21003KT 9999 FEW032 SCT150 06/02 Q1022 NOSIG   
EGVN 171850Z 21003KT 9999 FEW032 SCT150 06/02 Q1022 BLU NOSIG
EGVN 171750Z 21003KT 9999 FEW030 SCT140 BKN180 07/03 Q1021 NOSIG
EGVN 171750Z 21003KT 9999 FEW030 SCT140 BKN180 07/03 Q1021 BLU NOSIG
EGVN 171650Z 23004KT 9999 FEW028 BKN200 08/04 Q1021 NOSIG   
EGVN 171650Z 23004KT 9999 FEW028 BKN200 08/04 Q1021 BLU NOSIG
EGVN 171550Z 23005KT 9999 FEW028 SCT036 BKN250 09/04 Q1021 BLU NOSIG
EGVN 171550Z 23005KT 9999 FEW028 SCT036 BKN250 09/04 Q1021 NOSIG
EGVN 171450Z 25005KT 9999 SCT025 BKN030 09/04 Q1021 BLU NOSIG   
EGVN 171450Z 25005KT 9999 SCT025 BKN030 09/04 Q1021 NOSIG
EGVN 171350Z 24006KT 9999 SCT025 SCT050 09/04 Q1021 NOSIG   
EGVN 171350Z 24006KT 9999 SCT025 SCT050 09/04 Q1021 BLU NOSIG
EGVN 171250Z 24006KT 9999 SCT025 BKN050 09/03 Q1021 NOSIG   
EGVN 171250Z 24006KT 9999 SCT025 BKN050 09/03 Q1021 BLU NOSIG
EGVN 171150Z 22005KT 9999 FEW020 BKN050 08/03 Q1022 BLU TEMPO SCT020 WHT
EGVN 171150Z 22005KT 9999 FEW020 BKN050 08/03 Q1022 TEMPO SCT020
EGVN 171050Z 23002KT 9999 FEW018 BKN060 06/03 Q1021 TEMPO SCT018
EGVN 171050Z 23002KT 9999 FEW018 BKN060 06/03 Q1021 BLU TEMPO SCT018 WHT
EGVN 170950Z 15002KT CAVOK 04/03 Q1021 TEMPO SCT020 
EGVN 170950Z 15002KT CAVOK 04/03 Q1021 BLU TEMPO SCT020 WHT
EGVN 170929Z 11001KT 9000 3000S BR BKN080 04/03 Q1021 YLO1 BECMG 9999 NSW BLU
EGVN 170850Z 09001KT 3800 2500S BR SCT110 02/01 Q1021 YLO1 BECMG 9999 NSW BLU   
EGVN 170850Z 09001KT 3800 2500S BR SCT110 02/01 Q1021 BECMG 9999 NSW
EGVN 170830Z 06002KT 2800 BR BKN110 01/01 Q1021 YLO1 BECMG 9999 NSW BLU
EGVN 170750Z 07002KT 3700 2000S BR FEW070 BKN100 00/00 Q1021 BECMG 9999 NSW 
EGVN 170750Z 07002KT 3700 2000S MIFG BR FEW070 BKN100 00/00 Q1021 YLO2 BECMG 9999 NSW BLU
EGVN 170650Z 08003KT 2500 BR SCT060 SCT100 BKN150 00/00 Q1020 YLO1 BECMG 9999 NSW BLU   
EGVN 170650Z 08003KT 2500 BR SCT060 SCT100 BKN150 00/00 Q1020 BECMG 9999 NSW
EGVN 170550Z 07002KT CAVOK 01/01 Q1020 NOSIG
EGVN 170450Z 05003KT CAVOK 01/01 Q1020 BLU NOSIG
EGVN 170450Z 05003KT CAVOK 01/01 Q1020 NOSIG
EGVN 170350Z 06004KT CAVOK 00/00 Q1020 BLU TEMPO 4000 BR GRN
EGVN 170350Z 06004KT CAVOK 00/00 Q1020 TEMPO 4000 BR
EGVN 170250Z 04003KT CAVOK 00/00 Q1020 TEMPO 4000 BR
EGVN 170250Z 04003KT CAVOK 00/00 Q1020 BLU TEMPO 4000 BR GRN